Time;durP1;ratioP1;P1;durP2;ratioP2;P2;SDS_P1;SDS_P2;PMS_P1;PMS_P2;Temp;Humidity;BMP_temperature;BMP_pressure;BME280_temperature;BME280_humidity;BME280_pressure;Samples;Min_cycle;Max_cycle;Signal;HPM_P1;HPM_P2
2022/06/28 00:01:53;;;;;;;7.30;6.50;;;;;;;19.32;75.04;100912.66;5021588;28;20383;-77
2022/06/28 00:04:19;;;;;;;3.53;3.22;;;;;;;19.34;74.86;100908.50;5018103;28;20406;-77
2022/06/28 00:06:46;;;;;;;4.22;1.85;;;;;;;19.31;74.84;100913.75;5015924;28;20472;-77
2022/06/28 00:09:12;;;;;;;1.10;0.50;;;;;;;19.27;75.03;100916.25;5016040;28;20503;-77
2022/06/28 00:11:38;;;;;;;1.23;0.70;;;;;;;19.28;75.05;100917.06;5043621;28;20416;-77
2022/06/28 00:16:04;;;;;;;2.13;0.90;;;;;;;19.36;75.01;100919.19;5029041;28;20402;-76
2022/06/28 00:16:49;;;;;;;3.97;0.70;;;;;;;19.41;74.81;100921.91;5029714;28;20398;-77
2022/06/28 00:19:14;;;;;;;1.95;0.70;;;;;;;19.41;74.95;100913.66;5003672;28;20418;-77
2022/06/28 00:21:40;;;;;;;1.07;0.67;;;;;;;19.38;74.91;100906.78;5025575;28;20391;-76
2022/06/28 00:24:05;;;;;;;5.20;0.90;;;;;;;19.35;75.01;100909.31;5000433;28;20394;-76
2022/06/28 00:26:30;;;;;;;1.60;0.80;;;;;;;19.26;74.88;100911.88;5030771;28;20505;-77
2022/06/28 00:28:56;;;;;;;2.57;0.73;;;;;;;19.19;75.06;100905.91;5017702;28;20469;-77
2022/06/28 00:31:24;;;;;;;3.80;0.80;;;;;;;19.18;75.07;100907.84;5017068;28;20499;-77
2022/06/28 00:33:50;;;;;;;3.90;0.80;;;;;;;19.12;75.47;100899.94;5033444;28;20891;-76
2022/06/28 00:36:15;;;;;;;0.80;0.80;;;;;;;19.11;75.32;100906.53;5031528;28;20423;-76
2022/06/28 00:38:40;;;;;;;1.10;0.70;;;;;;;19.12;75.46;100908.19;5009173;28;20462;-77
2022/06/28 00:41:06;;;;;;;1.47;0.90;;;;;;;19.13;75.37;100909.84;5024100;28;20920;-77
2022/06/28 00:43:31;;;;;;;1.10;0.97;;;;;;;19.10;75.40;100907.63;5032728;28;20395;-77
2022/06/28 00:45:56;;;;;;;3.50;0.90;;;;;;;19.07;75.44;100909.03;5028629;28;20510;-77
2022/06/28 00:48:24;;;;;;;4.57;0.87;;;;;;;18.96;75.68;100902.03;5022957;28;20422;-77
2022/06/28 00:50:49;;;;;;;1.65;1.00;;;;;;;18.98;75.60;100899.81;5022669;28;20477;-77
2022/06/28 00:53:17;;;;;;;1.70;1.00;;;;;;;18.98;75.54;100902.56;5031458;28;20930;-77
2022/06/28 00:55:44;;;;;;;3.90;1.00;;;;;;;18.94;75.50;100898.75;5045375;28;20445;-77
2022/06/28 00:58:10;;;;;;;4.28;1.40;;;;;;;18.92;75.67;100905.63;5011882;28;21100;-77
2022/06/28 01:00:40;;;;;;;3.60;1.05;;;;;;;18.93;75.58;100907.28;5024994;28;20403;-77
2022/06/28 01:03:07;;;;;;;3.22;0.95;;;;;;;18.92;75.47;100905.63;5031465;28;20758;-77
2022/06/28 01:05:33;;;;;;;2.80;0.90;;;;;;;18.98;75.56;100907.22;5028985;28;20481;-77
2022/06/28 01:08:00;;;;;;;3.50;0.93;;;;;;;18.98;75.32;100907.22;5013633;28;20399;-77
2022/06/28 01:10:26;;;;;;;3.88;1.05;;;;;;;18.88;75.28;100902.66;5034241;28;20399;-77
2022/06/28 01:12:52;;;;;;;2.07;0.90;;;;;;;18.79;75.61;100906.31;5031550;28;20414;-77
2022/06/28 01:15:17;;;;;;;2.03;1.30;;;;;;;18.76;75.79;100896.72;5003180;28;20395;-77
2022/06/28 01:17:43;;;;;;;1.00;1.00;;;;;;;18.75;75.62;100889.59;5016860;28;20751;-77
2022/06/28 01:20:09;;;;;;;1.80;0.90;;;;;;;18.76;75.62;100893.97;5025354;28;20795;-77
2022/06/28 01:22:40;;;;;;;2.60;0.80;;;;;;;18.73;75.77;100896.47;5029862;28;20393;-76
2022/06/28 01:25:07;;;;;;;1.75;1.00;;;;;;;18.69;76.05;100901.72;5065399;28;20403;-77
2022/06/28 01:27:33;;;;;;;1.17;1.08;;;;;;;18.64;75.93;100907.25;5013649;28;20417;-77
2022/06/28 01:29:59;;;;;;;0.80;0.80;;;;;;;18.70;76.12;100913.53;5021070;28;20920;-77
2022/06/28 01:32:26;;;;;;;2.03;1.13;;;;;;;18.71;75.79;100912.41;5028658;28;20469;-76
2022/06/28 01:34:51;;;;;;;4.47;1.00;;;;;;;18.60;75.45;100920.75;5018024;28;20883;-78
2022/06/28 01:37:16;;;;;;;1.90;1.00;;;;;;;18.51;75.92;100914.22;5017473;28;20439;-77
2022/06/28 01:39:42;;;;;;;3.47;1.20;;;;;;;18.46;76.08;100919.72;5033653;28;20387;-77
2022/06/28 01:42:07;;;;;;;1.30;1.10;;;;;;;18.40;76.50;100909.91;5033224;28;20801;-77
2022/06/28 01:44:33;;;;;;;1.30;1.10;;;;;;;18.50;76.03;100904.38;5027581;28;20941;-77
2022/06/28 01:47:00;;;;;;;0.93;0.93;;;;;;;18.56;75.74;100902.38;5011823;28;20407;-77
2022/06/28 01:49:26;;;;;;;1.60;0.90;;;;;;;18.55;76.16;100904.31;5014270;28;20410;-77
2022/06/28 01:51:51;;;;;;;1.43;0.80;;;;;;;18.49;75.88;100907.34;5032083;28;20391;-77
2022/06/28 01:54:16;;;;;;;2.00;0.87;;;;;;;18.46;76.44;100910.66;5032717;28;20383;-77
2022/06/28 01:56:43;;;;;;;1.63;1.30;;;;;;;18.40;76.38;100911.81;5026355;28;20552;-77
2022/06/28 01:59:08;;;;;;;2.20;0.90;;;;;;;18.42;76.33;100915.09;5029953;28;20461;-77
2022/06/28 02:01:33;;;;;;;3.10;0.77;;;;;;;18.39;76.17;100913.75;5031678;28;20481;-77
2022/06/28 02:03:59;;;;;;;2.20;1.00;;;;;;;18.37;75.95;100909.66;5009839;28;20578;-77
2022/06/28 02:06:24;;;;;;;2.60;0.90;;;;;;;18.36;75.77;100910.75;5018753;28;20454;-77
2022/06/28 02:08:49;;;;;;;1.23;1.00;;;;;;;18.31;76.01;100908.84;5033026;28;20807;-77
2022/06/28 02:11:14;;;;;;;3.17;0.80;;;;;;;18.32;76.16;100910.50;5033007;28;20797;-77
2022/06/28 02:13:40;;;;;;;0.80;0.80;;;;;;;18.36;76.01;100913.47;5008325;28;20404;-77
2022/06/28 02:16:05;;;;;;;0.80;0.80;;;;;;;18.36;76.12;100908.81;5010790;28;20416;-76
2022/06/28 02:18:31;;;;;;;1.15;0.98;;;;;;;18.37;76.19;100915.97;5027587;28;20433;-77
2022/06/28 02:20:57;;;;;;;2.60;1.70;;;;;;;18.36;76.12;100916.22;5029937;28;20742;-77
2022/06/28 02:23:23;;;;;;;1.00;0.80;;;;;;;18.34;76.02;100910.22;5002886;28;20409;-77
2022/06/28 02:25:48;;;;;;;0.95;0.77;;;;;;;18.35;75.72;100911.84;5008553;28;20900;-77
2022/06/28 02:28:13;;;;;;;3.80;1.17;;;;;;;18.33;75.59;100911.31;5029379;28;20799;-76
2022/06/28 02:30:38;;;;;;;5.60;0.93;;;;;;;18.30;75.76;100920.94;5022373;28;20425;-77
2022/06/28 02:33:04;;;;;;;2.00;0.90;;;;;;;18.21;75.47;100924.56;5013159;28;20474;-77
2022/06/28 02:40:57;;;;;;;1.88;1.23;;;;;;;18.10;75.60;100932.88;5006310;28;20425;-77
2022/06/28 02:43:22;;;;;;;4.20;1.00;;;;;;;18.12;75.61;100935.31;5011238;28;20412;-77
2022/06/28 02:45:49;;;;;;;0.87;0.87;;;;;;;18.05;75.87;100937.53;5019691;28;20423;-77
2022/06/28 02:48:15;;;;;;;2.20;1.30;;;;;;;18.06;75.78;100939.19;5032325;28;20394;-77
2022/06/28 02:50:40;;;;;;;4.47;1.00;;;;;;;18.11;75.50;100939.19;5032126;28;20398;-77
2022/06/28 02:53:05;;;;;;;3.07;1.13;;;;;;;18.10;75.56;100945.75;5019671;28;20807;-77
2022/06/28 02:55:30;;;;;;;2.25;0.90;;;;;;;18.07;75.79;100946.31;5024824;28;20878;-77
2022/06/28 02:57:56;;;;;;;2.10;0.90;;;;;;;18.00;75.75;100943.06;5047630;28;20395;-77
2022/06/28 03:00:21;;;;;;;1.73;1.07;;;;;;;18.02;75.73;100947.16;5031989;28;20453;-76
2022/06/28 03:02:48;;;;;;;3.30;1.00;;;;;;;18.00;75.83;100954.84;5020274;28;20413;-77
2022/06/28 03:05:16;;;;;;;0.90;0.70;;;;;;;17.89;75.95;100952.44;5024307;28;20426;-77
2022/06/28 03:07:42;;;;;;;0.95;0.95;;;;;;;17.86;76.14;100953.81;5031799;28;20478;-77
2022/06/28 03:10:09;;;;;;;4.35;1.00;;;;;;;17.91;75.86;100953.81;5020534;28;20411;-77
2022/06/28 03:12:34;;;;;;;1.38;1.08;;;;;;;17.93;75.93;100954.34;5037811;28;20436;-77
2022/06/28 03:14:59;;;;;;;2.80;0.93;;;;;;;17.95;75.56;100945.81;5025649;28;20410;-77
2022/06/28 03:17:25;;;;;;;1.77;0.83;;;;;;;17.95;75.72;100948.56;5030483;28;20748;-77
2022/06/28 03:19:50;;;;;;;3.13;1.50;;;;;;;17.94;75.72;100949.69;5031780;28;20387;-77
2022/06/28 03:22:15;;;;;;;1.90;1.50;;;;;;;17.95;75.96;100948.56;5022072;28;20413;-77
2022/06/28 03:24:41;;;;;;;1.50;1.40;;;;;;;17.95;75.65;100954.88;5024929;28;20487;-77
2022/06/28 03:27:06;;;;;;;2.38;1.42;;;;;;;18.00;75.73;100954.03;5031590;28;20406;-76
2022/06/28 03:29:32;;;;;;;1.40;0.90;;;;;;;18.02;75.84;100957.31;5005891;28;20438;-77
2022/06/28 03:31:57;;;;;;;1.53;1.07;;;;;;;17.96;75.61;100963.91;5010712;28;20428;-77
2022/06/28 03:34:23;;;;;;;1.48;1.30;;;;;;;17.81;75.33;100964.81;5012816;28;20496;-77
2022/06/28 03:36:48;;;;;;;8.00;1.40;;;;;;;17.75;75.73;100968.66;5015126;28;20407;-77
2022/06/28 03:39:14;;;;;;;4.87;1.00;;;;;;;17.78;75.53;100968.13;5046738;28;20448;-77
2022/06/28 03:41:39;;;;;;;14.60;2.28;;;;;;;17.77;75.36;100965.66;5041536;28;20419;-77
2022/06/28 03:44:05;;;;;;;8.70;1.50;;;;;;;17.77;75.06;100976.63;5026541;28;20400;-77
2022/06/28 03:46:30;;;;;;;6.77;1.20;;;;;;;17.77;75.01;100971.97;5002150;28;20973;-77
2022/06/28 03:48:55;;;;;;;6.33;1.40;;;;;;;17.82;74.82;100971.09;5031277;28;20391;-77
2022/06/28 03:51:21;;;;;;;9.67;1.30;;;;;;;17.78;74.88;100970.88;5031155;28;20379;-77
2022/06/28 03:53:46;;;;;;;6.43;1.10;;;;;;;17.78;74.96;100972.78;5024572;28;20489;-77
2022/06/28 03:56:11;;;;;;;5.17;1.10;;;;;;;17.79;74.77;100972.50;5003564;28;20413;-77
2022/06/28 03:58:37;;;;;;;6.00;1.42;;;;;;;17.78;74.98;100978.28;5031097;28;20528;-77
2022/06/28 04:01:03;;;;;;;10.50;2.10;;;;;;;17.77;75.04;100985.66;5046180;28;20486;-77
2022/06/28 04:03:29;;;;;;;7.20;1.10;;;;;;;17.76;75.01;100973.06;5010073;28;20409;-76
2022/06/28 04:05:54;;;;;;;4.33;1.17;;;;;;;17.77;74.88;100973.88;5005881;28;20440;-77
2022/06/28 04:08:19;;;;;;;4.63;1.07;;;;;;;17.65;75.19;100981.59;5023552;28;20403;-77
2022/06/28 04:10:45;;;;;;;5.23;1.10;;;;;;;17.52;75.69;100982.94;5022360;28;20436;-77
2022/06/28 04:13:10;;;;;;;3.88;0.90;;;;;;;17.50;75.87;100983.25;5021726;28;20407;-77
2022/06/28 04:15:37;;;;;;;5.20;1.30;;;;;;;17.58;75.70;100973.69;5019647;28;20405;-77
2022/06/28 04:18:04;;;;;;;3.17;1.10;;;;;;;17.65;75.49;100978.84;5013900;28;20749;-77
2022/06/28 04:20:29;;;;;;;5.57;1.50;;;;;;;17.66;75.46;100975.81;5008442;28;20411;-77
2022/06/28 04:22:54;;;;;;;4.63;0.90;;;;;;;17.68;75.38;100961.84;5010373;28;20543;-77
2022/06/28 04:25:19;;;;;;;5.20;1.20;;;;;;;17.73;75.46;100973.63;5011737;28;20430;-77
2022/06/28 04:27:45;;;;;;;7.93;1.80;;;;;;;17.73;75.53;100965.38;5010956;28;20411;-78
2022/06/28 04:30:11;;;;;;;4.10;1.57;;;;;;;17.76;75.62;100964.81;5007696;28;20411;-78
2022/06/28 04:32:36;;;;;;;4.50;1.00;;;;;;;17.81;75.67;100964.00;5010792;28;20423;-78
2022/06/28 04:35:02;;;;;;;4.93;1.10;;;;;;;17.84;75.80;100968.91;5011316;28;20408;-77
2022/06/28 04:37:27;;;;;;;2.40;1.50;;;;;;;17.80;75.99;100973.31;5009636;28;20416;-78
2022/06/28 04:39:52;;;;;;;2.50;1.23;;;;;;;17.86;76.31;100974.94;5012202;28;20416;-78
2022/06/28 04:42:18;;;;;;;2.00;1.10;;;;;;;17.90;76.51;100967.78;5013037;28;20408;-78
2022/06/28 04:44:44;;;;;;;3.80;1.57;;;;;;;17.89;76.48;100979.84;5012388;28;20408;-77
2022/06/28 04:47:09;;;;;;;1.50;1.40;;;;;;;17.84;76.96;100985.38;5011135;28;20451;-76
2022/06/28 04:49:34;;;;;;;6.90;1.70;;;;;;;17.92;77.00;100976.53;5019389;28;20411;-77
2022/06/28 04:52:00;;;;;;;3.45;1.45;;;;;;;17.98;77.08;100973.50;5012756;28;20404;-77
2022/06/28 04:54:26;;;;;;;3.53;1.40;;;;;;;18.05;77.09;100978.69;5011874;28;20500;-77
2022/06/28 04:56:52;;;;;;;2.27;1.30;;;;;;;18.05;76.98;100975.94;5015954;28;20510;-77
2022/06/28 04:59:17;;;;;;;6.00;1.73;;;;;;;18.07;76.99;100971.00;5002746;28;20413;-76
2022/06/28 05:01:42;;;;;;;3.40;2.13;;;;;;;18.07;76.87;100982.81;4997869;28;20455;-76
2022/06/28 05:04:08;;;;;;;3.00;1.60;;;;;;;18.08;77.18;100978.94;5004247;28;20416;-76
2022/06/28 05:06:33;;;;;;;2.13;1.63;;;;;;;18.14;77.11;100980.53;5007120;28;20831;-76
2022/06/28 05:08:58;;;;;;;4.00;2.13;;;;;;;18.17;76.92;100976.44;5015653;28;20444;-79
2022/06/28 05:11:24;;;;;;;1.73;1.63;;;;;;;18.17;77.05;100979.19;5018363;28;20519;-78
2022/06/28 05:13:49;;;;;;;1.90;1.80;;;;;;;18.24;76.98;100990.66;5018407;28;20475;-76
2022/06/28 05:16:15;;;;;;;3.73;2.10;;;;;;;18.27;76.63;100990.09;5003930;28;20405;-77
2022/06/28 05:18:41;;;;;;;3.97;2.15;;;;;;;18.25;76.71;100988.72;5008143;28;20415;-79
2022/06/28 05:21:06;;;;;;;3.30;1.80;;;;;;;18.24;76.85;100987.09;5043607;28;20413;-79
2022/06/28 05:23:31;;;;;;;2.20;1.87;;;;;;;18.27;76.81;100981.88;5006739;28;20865;-78
2022/06/28 05:25:57;;;;;;;3.60;1.87;;;;;;;18.28;76.51;100980.75;5012974;28;20454;-75
2022/06/28 05:28:22;;;;;;;1.87;1.60;;;;;;;18.27;76.38;100979.13;5005574;28;20528;-77
2022/06/28 05:30:47;;;;;;;2.00;1.90;;;;;;;18.32;76.24;100976.34;5012217;28;20435;-79
2022/06/28 05:33:13;;;;;;;1.90;1.60;;;;;;;18.37;76.07;100965.34;5007211;28;20425;-79
2022/06/28 05:35:38;;;;;;;2.13;1.50;;;;;;;18.37;76.40;100972.75;5005288;28;20870;-79
2022/06/28 05:38:04;;;;;;;1.77;1.67;;;;;;;18.40;75.94;100967.53;5005719;28;20419;-79
2022/06/28 05:40:29;;;;;;;4.10;1.55;;;;;;;18.45;75.82;100969.41;5006193;28;20405;-79
2022/06/28 05:42:54;;;;;;;3.37;1.97;;;;;;;18.52;75.86;100972.69;5008702;28;20416;-79
2022/06/28 05:45:20;;;;;;;3.23;2.10;;;;;;;18.58;75.26;100966.88;5005688;28;20425;-79
2022/06/28 05:47:45;;;;;;;4.28;2.08;;;;;;;18.63;75.16;100961.34;5015623;28;20416;-79
2022/06/28 05:50:11;;;;;;;5.10;2.27;;;;;;;18.69;74.90;100967.63;5011879;28;20419;-79
2022/06/28 05:52:36;;;;;;;3.45;2.25;;;;;;;18.70;74.63;100951.97;5018569;28;20489;-79
2022/06/28 05:55:02;;;;;;;2.77;2.20;;;;;;;18.67;74.59;100945.13;5007012;28;20523;-79
2022/06/28 05:57:27;;;;;;;2.45;2.20;;;;;;;18.71;74.68;100948.09;5053033;28;20802;-79
2022/06/28 05:59:52;;;;;;;2.10;1.90;;;;;;;18.76;74.66;100943.41;5015212;28;20415;-79
2022/06/28 06:02:18;;;;;;;2.37;2.13;;;;;;;18.78;74.48;100940.34;5005944;28;20774;-79
2022/06/28 06:04:43;;;;;;;2.17;1.90;;;;;;;18.79;74.32;100945.56;5014931;28;20423;-78
2022/06/28 06:07:08;;;;;;;4.35;2.28;;;;;;;18.85;74.27;100949.09;5015218;28;20433;-78
2022/06/28 06:09:34;;;;;;;2.10;2.00;;;;;;;18.89;74.19;100948.25;5010789;28;20401;-77
2022/06/28 06:11:59;;;;;;;3.83;1.90;;;;;;;18.90;74.19;100941.63;5030340;28;20426;-78
2022/06/28 06:14:25;;;;;;;2.63;1.70;;;;;;;18.92;74.11;100941.34;5017017;28;20529;-77
2022/06/28 06:16:53;;;;;;;1.57;1.47;;;;;;;18.96;73.98;100937.75;5014727;28;20443;-76
2022/06/28 06:19:18;;;;;;;1.80;1.70;;;;;;;19.04;74.06;100939.84;5007336;28;20431;-76
2022/06/28 06:21:44;;;;;;;5.10;1.77;;;;;;;19.07;73.97;100939.25;5005771;28;20414;-77
2022/06/28 06:24:10;;;;;;;5.67;1.80;;;;;;;19.07;73.45;100933.78;5007048;28;20417;-77
2022/06/28 06:26:35;;;;;;;1.73;1.63;;;;;;;19.11;73.01;100945.81;5005683;28;20904;-77
2022/06/28 06:29:01;;;;;;;2.15;1.60;;;;;;;19.13;72.68;100942.81;5009061;28;20879;-77
2022/06/28 06:31:27;;;;;;;1.60;1.50;;;;;;;19.17;72.81;100944.66;5005055;28;20534;-78
2022/06/28 06:33:52;;;;;;;1.80;1.70;;;;;;;19.21;72.23;100931.16;5006769;28;20444;-78
2022/06/28 06:36:18;;;;;;;1.40;1.40;;;;;;;19.23;71.63;100919.91;5010556;28;20438;-76
2022/06/28 06:38:43;;;;;;;1.75;1.45;;;;;;;19.27;71.54;100923.66;5007186;28;20995;-77
2022/06/28 06:41:08;;;;;;;1.60;1.47;;;;;;;19.26;71.43;100914.63;5013592;28;20417;-78
2022/06/28 06:43:34;;;;;;;2.57;1.60;;;;;;;19.32;71.17;100916.22;5004180;28;20746;-78
2022/06/28 06:45:59;;;;;;;1.40;1.30;;;;;;;19.35;70.79;100926.63;5010435;28;20467;-78
2022/06/28 06:48:24;;;;;;;2.63;1.20;;;;;;;19.31;70.55;100911.00;5004391;28;20503;-78
2022/06/28 06:50:50;;;;;;;3.00;1.40;;;;;;;19.35;70.21;100923.06;5005438;28;20405;-77
2022/06/28 06:53:15;;;;;;;5.10;1.23;;;;;;;19.39;69.84;100916.69;5003837;28;20757;-78
2022/06/28 06:55:41;;;;;;;1.80;1.20;;;;;;;19.41;69.12;100913.66;5003000;28;20975;-78
2022/06/28 06:58:07;;;;;;;2.20;1.20;;;;;;;19.44;69.07;100913.06;5007052;28;20491;-78
2022/06/28 07:00:34;;;;;;;1.90;1.23;;;;;;;19.45;68.90;100912.81;5019889;28;20429;-78
2022/06/28 07:03:02;;;;;;;1.65;1.17;;;;;;;19.50;68.65;100911.91;5016769;28;20404;-78
2022/06/28 07:05:27;;;;;;;3.10;1.20;;;;;;;19.54;68.80;100908.28;5012888;28;20979;-78
2022/06/28 07:07:52;;;;;;;2.80;1.00;;;;;;;19.57;68.48;100904.13;5006639;28;20499;-78
2022/06/28 07:10:18;;;;;;;1.60;1.05;;;;;;;19.59;68.49;100907.41;5002488;28;20419;-78
2022/06/28 07:12:43;;;;;;;1.27;0.87;;;;;;;19.62;67.84;100902.16;5014581;28;20804;-78
2022/06/28 07:15:09;;;;;;;3.00;1.10;;;;;;;19.63;67.55;100906.50;5005536;28;20886;-78
2022/06/28 07:17:34;;;;;;;3.40;1.13;;;;;;;19.66;66.90;100913.34;5004037;28;20416;-77
2022/06/28 07:19:59;;;;;;;2.20;1.10;;;;;;;19.72;66.25;100897.63;5003948;28;20427;-78
2022/06/28 07:22:25;;;;;;;2.20;0.90;;;;;;;19.78;66.16;100896.44;5036658;28;20422;-78
2022/06/28 07:24:51;;;;;;;4.00;0.90;;;;;;;19.83;65.91;100891.69;5007891;28;20448;-78
2022/06/28 07:27:17;;;;;;;1.80;0.80;;;;;;;19.90;65.09;100886.63;5003435;28;20477;-78
2022/06/28 07:29:42;;;;;;;2.37;0.90;;;;;;;19.98;64.44;100896.16;5001262;28;20887;-78
2022/06/28 07:32:08;;;;;;;3.33;0.70;;;;;;;20.01;63.97;100890.06;5005142;28;20508;-78
2022/06/28 07:34:33;;;;;;;3.75;0.80;;;;;;;20.04;64.50;100890.28;5011481;28;20442;-78
2022/06/28 07:36:58;;;;;;;2.85;0.80;;;;;;;20.12;64.23;100886.84;5029994;28;20430;-78
2022/06/28 07:39:24;;;;;;;1.77;0.90;;;;;;;20.22;63.53;100891.38;5011738;28;20428;-77
2022/06/28 07:41:49;;;;;;;1.80;1.07;;;;;;;20.24;62.88;100899.38;5011038;28;20405;-78
2022/06/28 07:44:14;;;;;;;0.80;0.80;;;;;;;20.29;62.75;100889.13;5016657;28;20739;-78
2022/06/28 07:46:40;;;;;;;1.30;0.60;;;;;;;20.35;62.26;100898.13;5020968;28;20418;-78
2022/06/28 07:49:05;;;;;;;4.53;1.00;;;;;;;20.40;62.30;100889.78;5020476;28;20408;-78
2022/06/28 07:54:14;;;;;;;2.55;0.50;;;;;;;20.50;61.98;100897.88;5013423;28;20496;-77
2022/06/28 07:56:39;;;;;;;1.00;0.70;;;;;;;20.52;61.31;100892.88;5004792;28;20491;-78
2022/06/28 07:59:05;;;;;;;2.67;0.60;;;;;;;20.56;61.08;100889.22;5013104;28;20412;-77
2022/06/28 08:01:30;;;;;;;0.43;0.43;;;;;;;20.59;60.98;100899.66;5003700;28;20413;-77
2022/06/28 08:03:55;;;;;;;0.80;0.80;;;;;;;20.59;60.30;100891.38;5023537;28;20419;-77
2022/06/28 08:06:21;;;;;;;0.80;0.63;;;;;;;20.63;59.69;100892.44;5016787;28;20955;-77
2022/06/28 08:08:46;;;;;;;0.70;0.70;;;;;;;20.64;59.05;100891.31;5032443;28;20407;-77
2022/06/28 08:11:12;;;;;;;2.43;0.60;;;;;;;20.67;58.78;100892.66;5008222;28;20413;-77
2022/06/28 08:13:37;;;;;;;0.80;0.50;;;;;;;20.68;58.80;100883.28;5008091;28;20780;-77
2022/06/28 08:16:04;;;;;;;2.10;0.50;;;;;;;20.71;58.04;100883.44;5014915;28;20407;-78
2022/06/28 08:18:30;;;;;;;0.63;0.50;;;;;;;20.83;57.60;100880.25;5002922;28;20906;-78
2022/06/28 08:20:55;;;;;;;1.10;0.43;;;;;;;20.81;57.37;100870.66;5007721;28;20409;-78
2022/06/28 08:23:20;;;;;;;0.50;0.50;;;;;;;20.87;57.32;100869.44;5005053;28;20482;-78
2022/06/28 08:25:47;;;;;;;0.97;0.47;;;;;;;20.89;57.38;100856.97;5020746;28;20784;-78
2022/06/28 08:28:13;;;;;;;0.85;0.60;;;;;;;20.95;57.63;100853.00;5008694;28;20922;-78
2022/06/28 08:30:40;;;;;;;1.33;0.40;;;;;;;21.02;56.89;100849.84;5015826;28;20452;-78
2022/06/28 08:33:05;;;;;;;1.92;0.55;;;;;;;21.07;56.47;100845.06;5002612;28;20776;-78
2022/06/28 08:35:31;;;;;;;1.77;0.50;;;;;;;21.16;56.28;100834.19;5003771;28;20405;-78
2022/06/28 08:37:56;;;;;;;1.73;0.47;;;;;;;21.21;56.01;100837.63;5014969;28;20768;-78
2022/06/28 08:40:25;;;;;;;2.13;0.53;;;;;;;21.30;55.48;100829.50;5009495;28;20413;-78
2022/06/28 08:42:53;;;;;;;1.33;0.60;;;;;;;21.40;54.92;100839.50;5009653;28;20780;-78
2022/06/28 08:45:20;;;;;;;2.90;0.40;;;;;;;21.49;54.51;100843.16;5003134;28;20558;-78
2022/06/28 08:47:47;;;;;;;2.47;0.67;;;;;;;21.59;53.92;100838.25;5012291;28;20415;-78
2022/06/28 08:50:22;;;;;;;1.65;0.38;;;;;;;21.76;53.08;100837.59;5010939;28;20416;-77
2022/06/28 08:52:49;;;;;;;1.60;0.47;;;;;;;21.90;52.19;100838.38;5010045;28;20440;-78
2022/06/28 08:55:14;;;;;;;1.07;0.40;;;;;;;21.99;52.01;100832.97;5008287;28;20420;-78
2022/06/28 08:57:41;;;;;;;0.80;0.50;;;;;;;22.08;51.73;100820.03;5008542;28;20423;-78
2022/06/28 09:00:09;;;;;;;3.42;0.60;;;;;;;22.14;50.96;100822.38;5019825;28;20761;-79
2022/06/28 09:02:34;;;;;;;2.35;0.60;;;;;;;22.13;50.72;100822.66;5002933;28;20905;-78
2022/06/28 09:05:01;;;;;;;3.03;0.70;;;;;;;22.16;50.46;100831.13;5018293;28;20423;-78
2022/06/28 09:07:27;;;;;;;1.35;0.40;;;;;;;22.22;50.53;100820.81;5042935;28;20421;-78
2022/06/28 09:09:53;;;;;;;0.85;0.40;;;;;;;22.27;50.02;100820.66;5004620;28;20414;-77
2022/06/28 09:12:19;;;;;;;1.30;0.50;;;;;;;22.30;48.88;100819.22;5002993;28;20459;-77
2022/06/28 09:14:45;;;;;;;1.25;0.40;;;;;;;22.39;48.63;100809.88;5019235;28;20384;-78
2022/06/28 09:17:19;;;;;;;2.57;0.40;;;;;;;22.48;48.75;100818.22;5007354;28;20408;-78
2022/06/28 09:19:45;;;;;;;2.73;0.47;;;;;;;22.61;49.06;100809.84;5005752;28;20420;-79
2022/06/28 09:22:27;;;;;;;1.23;0.50;;;;;;;22.83;49.26;100813.72;5006205;28;20528;-78
2022/06/28 09:24:53;;;;;;;1.00;0.70;;;;;;;22.96;48.30;100816.38;5008023;28;20747;-78
2022/06/28 09:27:31;;;;;;;1.08;0.70;;;;;;;23.00;48.18;100811.84;5016997;28;20418;-78
2022/06/28 09:29:56;;;;;;;1.40;0.52;;;;;;;23.09;47.45;100809.94;5016903;28;20405;-78
2022/06/28 09:32:34;;;;;;;4.78;0.60;;;;;;;23.28;46.92;100807.72;5006656;28;21010;-78
2022/06/28 09:35:03;;;;;;;1.02;0.38;;;;;;;23.42;47.04;100809.56;5013938;28;20406;-78
2022/06/28 09:37:51;;;;;;;0.55;0.40;;;;;;;23.54;46.45;100798.72;5019774;28;20911;-78
2022/06/28 09:40:16;;;;;;;1.02;0.55;;;;;;;23.70;46.54;100788.81;5004233;28;20470;-78
2022/06/28 09:42:43;;;;;;;1.30;0.50;;;;;;;23.86;46.77;100795.47;5032390;28;20406;-78
2022/06/28 09:45:10;;;;;;;5.17;0.90;;;;;;;23.97;46.38;100799.56;5006318;28;20503;-77
2022/06/28 09:47:41;;;;;;;0.77;0.40;;;;;;;24.03;45.56;100795.50;5021958;28;20422;-78
2022/06/28 09:50:09;;;;;;;1.63;0.57;;;;;;;24.16;45.64;100786.22;5017423;28;20910;-78
2022/06/28 09:52:35;;;;;;;1.08;0.75;;;;;;;24.38;45.62;100784.38;5019862;28;20450;-79
2022/06/28 09:55:01;;;;;;;0.57;0.32;;;;;;;24.55;44.92;100792.66;5015968;28;20415;-79
2022/06/28 09:57:30;;;;;;;0.43;0.40;;;;;;;24.75;44.16;100784.44;5008424;28;20772;-79
2022/06/28 09:59:57;;;;;;;0.50;0.43;;;;;;;24.96;42.82;100786.53;5023603;28;20747;-78
2022/06/28 10:02:22;;;;;;;0.98;0.50;;;;;;;25.41;41.61;100797.84;5038682;28;20419;-78
2022/06/28 10:04:48;;;;;;;1.17;0.50;;;;;;;26.07;40.41;100793.31;5017170;28;20885;-77
2022/06/28 10:07:14;;;;;;;1.40;0.30;;;;;;;26.79;39.00;100790.78;5036809;28;20511;-77
2022/06/28 10:09:40;;;;;;;0.75;0.50;;;;;;;27.36;37.19;100797.44;5018038;28;20897;-78
2022/06/28 10:15:01;;;;;;;2.47;0.55;;;;;;;28.93;34.80;100790.47;5013552;28;20440;-78
2022/06/28 10:17:44;;;;;;;0.98;0.57;;;;;;;30.26;32.57;100783.56;5004968;28;20774;-78
2022/06/28 10:20:12;;;;;;;0.43;0.30;;;;;;;31.09;30.58;100785.50;5001885;28;20436;-78
2022/06/28 10:22:37;;;;;;;2.97;0.40;;;;;;;31.52;30.13;100784.22;5013391;28;20404;-79
2022/06/28 10:25:13;;;;;;;1.50;0.40;;;;;;;31.98;29.31;100778.44;5007532;28;20467;-78
2022/06/28 10:27:48;;;;;;;1.70;0.57;;;;;;;32.58;29.10;100774.34;5003324;28;20761;-78
2022/06/28 10:30:24;;;;;;;0.28;0.28;;;;;;;32.90;28.46;100786.66;5011451;28;20483;-78
2022/06/28 10:33:13;;;;;;;1.10;0.30;;;;;;;33.52;26.63;100778.34;5008911;28;20431;-78
2022/06/28 10:35:41;;;;;;;3.13;0.52;;;;;;;33.96;27.14;100775.38;5009232;28;20520;-78
2022/06/28 10:38:09;;;;;;;2.10;0.40;;;;;;;33.88;26.75;100777.34;5026068;28;20950;-78
2022/06/28 10:40:38;;;;;;;1.05;0.43;;;;;;;34.20;27.01;100762.63;5011831;28;20815;-76
2022/06/28 10:43:03;;;;;;;1.48;0.70;;;;;;;34.61;26.62;100766.75;5019200;28;20566;-76
2022/06/28 10:46:04;;;;;;;0.50;0.45;;;;;;;34.96;26.08;100751.91;4999446;28;20898;-76
2022/06/28 10:48:31;;;;;;;3.40;0.80;;;;;;;35.27;24.37;100758.75;5004852;28;20422;-74
2022/06/28 10:50:57;;;;;;;4.40;0.40;;;;;;;35.62;24.55;100767.13;5009446;28;20915;-76
2022/06/28 10:53:23;;;;;;;2.70;0.40;;;;;;;35.89;24.07;100740.03;5005420;28;20411;-76
2022/06/28 10:56:12;;;;;;;4.20;0.45;;;;;;;36.32;23.35;100745.47;5018319;28;20961;-75
2022/06/28 10:58:55;;;;;;;2.15;0.40;;;;;;;36.31;23.28;100729.75;5004601;28;20954;-76
2022/06/28 11:01:46;;;;;;;1.10;0.20;;;;;;;36.45;23.63;100720.38;5030685;28;20941;-76
2022/06/28 11:04:18;;;;;;;0.63;0.40;;;;;;;36.61;23.05;100710.22;5001422;28;20424;-75
2022/06/28 11:06:48;;;;;;;0.95;0.52;;;;;;;37.15;22.48;100702.09;5018949;28;20496;-76
2022/06/28 11:09:38;;;;;;;0.57;0.28;;;;;;;37.32;22.89;100701.06;4995157;28;20440;-76
2022/06/28 11:12:12;;;;;;;3.08;0.38;;;;;;;37.34;22.31;100696.63;5001553;28;21021;-77
2022/06/28 11:14:57;;;;;;;2.75;0.82;;;;;;;37.44;22.61;100695.66;4999633;28;20971;-75
2022/06/28 11:17:33;;;;;;;0.50;0.40;;;;;;;37.53;22.02;100683.09;5002696;28;20426;-77
2022/06/28 11:20:05;;;;;;;3.00;0.50;;;;;;;37.58;22.04;100693.91;5016592;28;20408;-75
2022/06/28 11:22:38;;;;;;;0.77;0.40;;;;;;;37.31;22.05;100688.94;4999847;28;20492;-76
2022/06/28 11:25:06;;;;;;;1.73;0.40;;;;;;;37.24;21.69;100680.56;5008096;28;20493;-75
2022/06/28 11:27:33;;;;;;;0.63;0.45;;;;;;;37.58;21.25;100669.28;5003371;28;20412;-77
2022/06/28 11:30:01;;;;;;;1.02;0.35;;;;;;;37.58;21.36;100666.44;5007109;28;20420;-77
2022/06/28 11:32:31;;;;;;;2.50;0.50;;;;;;;37.59;20.89;100664.41;4999983;28;20431;-76
2022/06/28 11:34:59;;;;;;;0.60;0.30;;;;;;;37.57;21.44;100673.34;5004007;28;20418;-75